Nordic Riga — 2DXO7 — position and weather

sailwx.info

Track history (hours):
 
Tides and Currents Weather Stations Pressure Air Temp Water Temp Dewpoint Dewpoint Depression Visibility Wind Speed Wind Dir Waves Ship Positions

Nordic Riga

Last reported at 2017-Oct-31 18:36 UTC. Time now 2017-Nov-18 04:44 UTC.
Position S 28°40' E 033°18'.
Warning: this ship's position is 17 days out of date.

Length 180 m; draft 10.3 m.

Type: Cargo ship. MMSI: 235082802.

Date/timePositionNaut miles runAvg speedWind from/ knotsBaromVisibWave heightAir tempDewpointWater temp
2017-Oct-31 18:36S 28°40' E 033°18'1 9.4
2017-Oct-31 18:30S 28°41' E 033°17'5 9.2
2017-Oct-31 18:00S 28°44' E 033°14'5 9.2
2017-Oct-31 17:30S 28°48' E 033°11'5 9.3
2017-Oct-31 17:00S 28°51' E 033°07'5 9.3
2017-Oct-31 16:30S 28°55' E 033°04'5 9.3
2017-Oct-31 15:58S 28°59' E 033°01'4 9.3
2017-Oct-31 15:30S 29°03' E 032°58'5 9.2
2017-Oct-31 15:00S 29°06' E 032°54'5 9.3
2017-Oct-31 14:30S 29°10' E 032°51'5 9.2
2017-Oct-31 14:00S 29°13' E 032°48'4 9.1
2017-Oct-31 13:30S 29°17' E 032°44'5 9.1
2017-Oct-31 13:01S 29°20' E 032°41'5 9.0
2017-Oct-31 12:30S 29°24' E 032°38'4 8.9
2017-Oct-31 12:01S 29°27' E 032°35'4 8.8
2017-Oct-31 11:31S 29°31' E 032°32'4 8.8
2017-Oct-31 11:00S 29°34' E 032°29'5 8.9
2017-Oct-31 10:29S 29°38' E 032°25'4 8.9
2017-Oct-31 10:00S 29°41' E 032°22'4 8.8
2017-Oct-31 09:31S 29°45' E 032°19'4 8.8
2017-Oct-31 09:01S 29°48' E 032°16'4 8.7
2017-Oct-31 08:30S 29°52' E 032°13'5 8.6
2017-Oct-31 07:59S 29°55' E 032°10'4 8.6
2017-Oct-31 07:30S 29°58' E 032°07'5 8.7
2017-Oct-31 06:56S 30°02' E 032°03'5 8.7
2017-Oct-31 06:19S 30°06' E 031°59'4 8.7
2017-Oct-31 05:51S 30°10' E 031°56'4 8.7
2017-Oct-31 05:22S 30°13' E 031°53'3 8.6
2017-Oct-31 05:00S 30°15' E 031°51'4 8.6
2017-Oct-31 04:30S 30°19' E 031°48'4 8.5
2017-Oct-31 04:00S 30°22' E 031°45'5 8.6
2017-Oct-31 03:24S 30°26' E 031°41'3 8.4
2017-Oct-31 03:00S 30°29' E 031°39'4 8.4
2017-Oct-31 02:31S 30°32' E 031°36'4 8.5
2017-Oct-31 02:00S 30°35' E 031°33'4 8.2
2017-Oct-31 01:29S 30°39' E 031°30'4 8.1
2017-Oct-31 01:00S 30°42' E 031°27'4 8.3
2017-Oct-31 00:31S 30°45' E 031°24'4 8.4
2017-Oct-31 00:01S 30°48' E 031°21'4 8.4
2017-Oct-30 23:31S 30°52' E 031°18'4 8.5
2017-Oct-30 22:59S 30°55' E 031°15'4 8.4
2017-Oct-30 22:30S 30°58' E 031°12'4 8.5
2017-Oct-30 22:01S 31°02' E 031°09'4 8.6
2017-Oct-30 21:29S 31°05' E 031°06'4 8.8
2017-Oct-30 21:01S 31°08' E 031°02'4 8.8
2017-Oct-30 20:31S 31°12' E 030°59'6 8.9
2017-Oct-30 19:52S 31°16' E 030°55'68 9.3
2017-Oct-30 12:34S 32°09' E 030°06'1 9.8
2017-Oct-30 12:31S 32°10' E 030°05'5 9.6
2017-Oct-30 12:00S 32°14' E 030°02'  
Track history (hours):
 
Tides and Currents Weather Stations Pressure Air Temp Water Temp Dewpoint Dewpoint Depression Visibility Wind Speed Wind Dir Waves Ship Positions

Nordic Riga

Last reported at 2017-Oct-31 18:36 UTC. Time now 2017-Nov-18 04:44 UTC.
Position S 28°40' E 033°18'.
Warning: this ship's position is 17 days out of date.

Length 180 m; draft 10.3 m.

Type: Cargo ship. MMSI: 235082802.

Date/timePositionNaut miles runAvg speedWind from/ knotsBaromVisibWave heightAir tempDewpointWater temp
2017-Oct-31 18:36S 28°40' E 033°18'1 9.4
2017-Oct-31 18:30S 28°41' E 033°17'5 9.2
2017-Oct-31 18:00S 28°44' E 033°14'5 9.2
2017-Oct-31 17:30S 28°48' E 033°11'5 9.3
2017-Oct-31 17:00S 28°51' E 033°07'5 9.3
2017-Oct-31 16:30S 28°55' E 033°04'5 9.3
2017-Oct-31 15:58S 28°59' E 033°01'4 9.3
2017-Oct-31 15:30S 29°03' E 032°58'5 9.2
2017-Oct-31 15:00S 29°06' E 032°54'5 9.3
2017-Oct-31 14:30S 29°10' E 032°51'5 9.2
2017-Oct-31 14:00S 29°13' E 032°48'4 9.1
2017-Oct-31 13:30S 29°17' E 032°44'5 9.1
2017-Oct-31 13:01S 29°20' E 032°41'5 9.0
2017-Oct-31 12:30S 29°24' E 032°38'4 8.9
2017-Oct-31 12:01S 29°27' E 032°35'4 8.8
2017-Oct-31 11:31S 29°31' E 032°32'4 8.8
2017-Oct-31 11:00S 29°34' E 032°29'5 8.9
2017-Oct-31 10:29S 29°38' E 032°25'4 8.9
2017-Oct-31 10:00S 29°41' E 032°22'4 8.8
2017-Oct-31 09:31S 29°45' E 032°19'4 8.8
2017-Oct-31 09:01S 29°48' E 032°16'4 8.7
2017-Oct-31 08:30S 29°52' E 032°13'5 8.6
2017-Oct-31 07:59S 29°55' E 032°10'4 8.6
2017-Oct-31 07:30S 29°58' E 032°07'5 8.7
2017-Oct-31 06:56S 30°02' E 032°03'5 8.7
2017-Oct-31 06:19S 30°06' E 031°59'4 8.7
2017-Oct-31 05:51S 30°10' E 031°56'4 8.7
2017-Oct-31 05:22S 30°13' E 031°53'3 8.6
2017-Oct-31 05:00S 30°15' E 031°51'4 8.6
2017-Oct-31 04:30S 30°19' E 031°48'4 8.5
2017-Oct-31 04:00S 30°22' E 031°45'5 8.6
2017-Oct-31 03:24S 30°26' E 031°41'3 8.4
2017-Oct-31 03:00S 30°29' E 031°39'4 8.4
2017-Oct-31 02:31S 30°32' E 031°36'4 8.5
2017-Oct-31 02:00S 30°35' E 031°33'4 8.2
2017-Oct-31 01:29S 30°39' E 031°30'4 8.1
2017-Oct-31 01:00S 30°42' E 031°27'4 8.3
2017-Oct-31 00:31S 30°45' E 031°24'4 8.4
2017-Oct-31 00:01S 30°48' E 031°21'4 8.4
2017-Oct-30 23:31S 30°52' E 031°18'4 8.5
2017-Oct-30 22:59S 30°55' E 031°15'4 8.4
2017-Oct-30 22:30S 30°58' E 031°12'4 8.5
2017-Oct-30 22:01S 31°02' E 031°09'4 8.6
2017-Oct-30 21:29S 31°05' E 031°06'4 8.8
2017-Oct-30 21:01S 31°08' E 031°02'4 8.8
2017-Oct-30 20:31S 31°12' E 030°59'6 8.9
2017-Oct-30 19:52S 31°16' E 030°55'68 9.3
2017-Oct-30 12:34S 32°09' E 030°06'1 9.8
2017-Oct-30 12:31S 32°10' E 030°05'5 9.6
2017-Oct-30 12:00S 32°14' E 030°02'  

Dump ship's entire track history